sensor_id;sensor_type;location;lat;lon;timestamp;noise_LAeq;noise_LA_min;noise_LA_max;noise_LA01;noise_LA95
76261;Laerm;65076;52.362;6.588;2024-03-23T00:54:40;37.53;32.85;47.34;;
76261;Laerm;65076;52.362;6.588;2024-03-23T00:57:06;33.98;31.52;36.66;;
76261;Laerm;65076;52.362;6.588;2024-03-23T00:59:32;34.21;32.11;36.58;;
76261;Laerm;65076;52.362;6.588;2024-03-23T01:01:58;34.38;31.95;44.00;;
76261;Laerm;65076;52.362;6.588;2024-03-23T01:04:24;34.78;32.25;37.15;;
76261;Laerm;65076;52.362;6.588;2024-03-23T01:06:50;35.44;32.29;45.82;;
76261;Laerm;65076;52.362;6.588;2024-03-23T01:09:18;34.79;32.19;38.88;;
76261;Laerm;65076;52.362;6.588;2024-03-23T01:11:45;34.26;31.82;37.87;;
76261;Laerm;65076;52.362;6.588;2024-03-23T01:14:11;46.67;32.08;64.34;;
76261;Laerm;65076;52.362;6.588;2024-03-23T01:16:37;34.38;31.99;36.62;;
76261;Laerm;65076;52.362;6.588;2024-03-23T01:19:03;64.02;32.63;80.22;;
76261;Laerm;65076;52.362;6.588;2024-03-23T01:21:29;63.33;34.52;80.25;;
76261;Laerm;65076;52.362;6.588;2024-03-23T01:23:55;34.74;32.36;49.68;;
76261;Laerm;65076;52.362;6.588;2024-03-23T01:26:24;34.51;31.42;39.02;;
76261;Laerm;65076;52.362;6.588;2024-03-23T01:28:50;41.07;32.37;55.28;;
76261;Laerm;65076;52.362;6.588;2024-03-23T01:31:16;36.59;32.37;47.90;;
76261;Laerm;65076;52.362;6.588;2024-03-23T01:33:42;46.51;32.67;63.49;;
76261;Laerm;65076;52.362;6.588;2024-03-23T01:36:08;68.61;34.59;80.25;;
76261;Laerm;65076;52.362;6.588;2024-03-23T01:38:34;34.31;31.17;49.54;;
76261;Laerm;65076;52.362;6.588;2024-03-23T01:41:00;34.18;32.17;37.00;;
76261;Laerm;65076;52.362;6.588;2024-03-23T01:43:29;34.02;31.67;36.91;;
76261;Laerm;65076;52.362;6.588;2024-03-23T01:45:55;34.34;32.29;36.12;;
76261;Laerm;65076;52.362;6.588;2024-03-23T01:48:21;34.24;31.60;36.48;;
76261;Laerm;65076;52.362;6.588;2024-03-23T01:50:47;39.79;32.05;51.40;;
76261;Laerm;65076;52.362;6.588;2024-03-23T01:53:14;34.56;32.23;37.34;;
76261;Laerm;65076;52.362;6.588;2024-03-23T01:55:42;34.82;32.49;37.09;;
76261;Laerm;65076;52.362;6.588;2024-03-23T01:58:08;36.65;33.49;51.97;;
76261;Laerm;65076;52.362;6.588;2024-03-23T02:00:36;67.71;34.22;78.86;;
76261;Laerm;65076;52.362;6.588;2024-03-23T02:03:22;34.43;31.94;37.72;;
76261;Laerm;65076;52.362;6.588;2024-03-23T02:05:48;34.48;31.76;38.68;;
76261;Laerm;65076;52.362;6.588;2024-03-23T02:08:15;34.58;32.97;36.36;;
76261;Laerm;65076;52.362;6.588;2024-03-23T02:10:41;34.49;32.62;36.46;;
76261;Laerm;65076;52.362;6.588;2024-03-23T02:13:07;34.51;31.77;36.38;;
76261;Laerm;65076;52.362;6.588;2024-03-23T02:15:35;34.43;32.66;36.89;;
76261;Laerm;65076;52.362;6.588;2024-03-23T02:18:01;34.41;32.27;37.41;;
76261;Laerm;65076;52.362;6.588;2024-03-23T02:20:27;34.52;31.70;39.67;;
76261;Laerm;65076;52.362;6.588;2024-03-23T02:22:56;34.73;32.42;37.74;;
76261;Laerm;65076;52.362;6.588;2024-03-23T02:25:22;48.06;31.79;65.12;;
76261;Laerm;65076;52.362;6.588;2024-03-23T02:27:48;34.51;31.48;41.38;;
76261;Laerm;65076;52.362;6.588;2024-03-23T02:30:14;34.57;31.63;40.56;;
76261;Laerm;65076;52.362;6.588;2024-03-23T02:32:49;37.06;31.95;46.54;;
76261;Laerm;65076;52.362;6.588;2024-03-23T02:35:15;34.49;31.18;39.61;;
76261;Laerm;65076;52.362;6.588;2024-03-23T02:37:42;34.13;31.37;43.08;;
76261;Laerm;65076;52.362;6.588;2024-03-23T02:40:08;33.80;31.42;36.99;;
76261;Laerm;65076;52.362;6.588;2024-03-23T02:42:34;33.99;31.32;36.55;;
76261;Laerm;65076;52.362;6.588;2024-03-23T02:45:00;34.06;31.67;36.95;;
76261;Laerm;65076;52.362;6.588;2024-03-23T02:47:26;34.36;31.84;37.10;;
76261;Laerm;65076;52.362;6.588;2024-03-23T02:49:55;34.80;32.19;37.94;;
76261;Laerm;65076;52.362;6.588;2024-03-23T02:52:21;34.66;32.10;40.20;;
76261;Laerm;65076;52.362;6.588;2024-03-23T02:54:47;48.18;32.40;65.60;;
76261;Laerm;65076;52.362;6.588;2024-03-23T02:57:13;34.88;32.86;39.18;;
76261;Laerm;65076;52.362;6.588;2024-03-23T02:59:39;34.33;32.14;37.49;;
76261;Laerm;65076;52.362;6.588;2024-03-23T03:02:05;34.95;33.13;38.92;;
76261;Laerm;65076;52.362;6.588;2024-03-23T03:04:31;34.68;32.88;38.26;;
76261;Laerm;65076;52.362;6.588;2024-03-23T03:07:00;34.52;31.76;38.77;;
76261;Laerm;65076;52.362;6.588;2024-03-23T03:09:27;45.19;32.99;62.97;;
76261;Laerm;65076;52.362;6.588;2024-03-23T03:11:53;35.01;32.49;38.89;;
76261;Laerm;65076;52.362;6.588;2024-03-23T03:14:19;34.04;31.65;36.75;;
76261;Laerm;65076;52.362;6.588;2024-03-23T03:16:45;34.95;32.60;37.92;;
76261;Laerm;65076;52.362;6.588;2024-03-23T03:19:11;37.41;33.01;53.28;;
76261;Laerm;65076;52.362;6.588;2024-03-23T03:21:37;36.62;32.22;45.49;;
76261;Laerm;65076;52.362;6.588;2024-03-23T03:24:07;36.14;33.34;43.12;;
76261;Laerm;65076;52.362;6.588;2024-03-23T03:26:33;35.14;33.39;37.47;;
76261;Laerm;65076;52.362;6.588;2024-03-23T03:28:59;34.69;32.49;41.44;;
76261;Laerm;65076;52.362;6.588;2024-03-23T03:31:25;42.75;32.61;59.05;;
76261;Laerm;65076;52.362;6.588;2024-03-23T03:33:51;36.82;34.14;42.81;;
76261;Laerm;65076;52.362;6.588;2024-03-23T03:36:17;34.75;32.45;38.38;;
76261;Laerm;65076;52.362;6.588;2024-03-23T03:38:43;34.82;32.64;39.33;;
76261;Laerm;65076;52.362;6.588;2024-03-23T03:41:12;34.97;32.37;50.04;;
76261;Laerm;65076;52.362;6.588;2024-03-23T03:43:38;42.88;32.16;55.67;;
76261;Laerm;65076;52.362;6.588;2024-03-23T03:46:04;41.46;32.20;56.23;;
76261;Laerm;65076;52.362;6.588;2024-03-23T03:48:30;41.53;32.15;59.86;;
76261;Laerm;65076;52.362;6.588;2024-03-23T03:50:56;42.33;32.57;59.01;;
76261;Laerm;65076;52.362;6.588;2024-03-23T03:53:22;51.04;32.79;67.05;;
76261;Laerm;65076;52.362;6.588;2024-03-23T03:55:48;45.65;33.08;63.55;;
76261;Laerm;65076;52.362;6.588;2024-03-23T03:58:17;35.98;33.76;50.94;;
76261;Laerm;65076;52.362;6.588;2024-03-23T04:00:43;43.22;33.31;58.51;;
76261;Laerm;65076;52.362;6.588;2024-03-23T04:03:09;43.20;33.08;58.52;;
76261;Laerm;65076;52.362;6.588;2024-03-23T04:05:35;53.78;33.05;70.53;;
76261;Laerm;65076;52.362;6.588;2024-03-23T04:08:01;42.18;33.37;55.02;;
76261;Laerm;65076;52.362;6.588;2024-03-23T04:10:28;47.51;33.76;62.57;;
76261;Laerm;65076;52.362;6.588;2024-03-23T04:12:54;46.64;33.55;61.27;;
76261;Laerm;65076;52.362;6.588;2024-03-23T04:15:22;48.99;34.29;64.40;;
76261;Laerm;65076;52.362;6.588;2024-03-23T04:17:48;45.92;33.63;61.67;;
76261;Laerm;65076;52.362;6.588;2024-03-23T04:20:15;49.89;33.43;65.16;;
76261;Laerm;65076;52.362;6.588;2024-03-23T04:22:41;47.71;33.48;62.47;;
76261;Laerm;65076;52.362;6.588;2024-03-23T04:25:07;53.81;34.41;70.21;;
76261;Laerm;65076;52.362;6.588;2024-03-23T04:27:33;56.37;35.07;69.81;;
76261;Laerm;65076;52.362;6.588;2024-03-23T04:29:59;56.09;35.26;70.57;;
76261;Laerm;65076;52.362;6.588;2024-03-23T04:32:28;55.99;35.44;71.11;;
76261;Laerm;65076;52.362;6.588;2024-03-23T04:34:55;51.22;34.41;67.77;;
76261;Laerm;65076;52.362;6.588;2024-03-23T04:37:21;51.04;35.31;67.37;;
76261;Laerm;65076;52.362;6.588;2024-03-23T04:39:47;45.71;34.68;63.71;;
76261;Laerm;65076;52.362;6.588;2024-03-23T04:42:15;48.83;35.95;58.31;;
76261;Laerm;65076;52.362;6.588;2024-03-23T04:44:41;49.37;35.36;61.81;;
76261;Laerm;65076;52.362;6.588;2024-03-23T04:47:07;46.02;35.73;58.49;;
76261;Laerm;65076;52.362;6.588;2024-03-23T04:49:36;51.44;36.11;64.61;;
76261;Laerm;65076;52.362;6.588;2024-03-23T04:52:03;52.62;36.27;71.08;;
76261;Laerm;65076;52.362;6.588;2024-03-23T04:54:29;51.64;34.98;66.65;;
76261;Laerm;65076;52.362;6.588;2024-03-23T04:56:56;51.67;34.93;65.28;;
76261;Laerm;65076;52.362;6.588;2024-03-23T04:59:22;50.58;34.84;66.85;;
76261;Laerm;65076;52.362;6.588;2024-03-23T05:01:48;49.77;34.66;62.72;;
76261;Laerm;65076;52.362;6.588;2024-03-23T05:04:14;49.15;34.85;61.91;;
76261;Laerm;65076;52.362;6.588;2024-03-23T05:06:43;47.72;34.52;65.18;;
76261;Laerm;65076;52.362;6.588;2024-03-23T05:09:09;40.68;34.32;61.83;;
76261;Laerm;65076;52.362;6.588;2024-03-23T05:11:35;41.16;34.27;63.55;;
76261;Laerm;65076;52.362;6.588;2024-03-23T05:14:01;50.25;34.99;66.54;;
76261;Laerm;65076;52.362;6.588;2024-03-23T05:16:27;50.31;35.31;67.33;;
76261;Laerm;65076;52.362;6.588;2024-03-23T05:21:21;43.35;34.81;58.60;;
76261;Laerm;65076;52.362;6.588;2024-03-23T05:23:49;46.57;35.54;63.74;;
76261;Laerm;65076;52.362;6.588;2024-03-23T05:26:15;49.86;34.67;63.57;;
76261;Laerm;65076;52.362;6.588;2024-03-23T05:28:41;45.58;35.72;59.69;;
76261;Laerm;65076;52.362;6.588;2024-03-23T05:31:07;52.48;35.55;69.24;;
76261;Laerm;65076;52.362;6.588;2024-03-23T05:33:34;45.20;35.74;60.77;;
76261;Laerm;65076;52.362;6.588;2024-03-23T05:36:01;47.59;36.63;64.13;;
76261;Laerm;65076;52.362;6.588;2024-03-23T05:38:28;53.64;37.25;67.90;;
76261;Laerm;65076;52.362;6.588;2024-03-23T05:40:59;59.19;37.55;75.46;;
76261;Laerm;65076;52.362;6.588;2024-03-23T05:43:26;43.80;36.23;61.14;;
76261;Laerm;65076;52.362;6.588;2024-03-23T05:45:53;50.35;36.64;64.74;;
76261;Laerm;65076;52.362;6.588;2024-03-23T05:48:20;46.58;36.31;58.56;;
76261;Laerm;65076;52.362;6.588;2024-03-23T05:50:46;48.16;35.21;61.87;;
76261;Laerm;65076;52.362;6.588;2024-03-23T05:53:12;50.35;36.71;65.44;;
76261;Laerm;65076;52.362;6.588;2024-03-23T05:55:38;45.10;36.17;58.15;;
76261;Laerm;65076;52.362;6.588;2024-03-23T05:58:07;48.69;35.45;63.63;;
76261;Laerm;65076;52.362;6.588;2024-03-23T06:00:33;53.09;36.23;68.29;;
76261;Laerm;65076;52.362;6.588;2024-03-23T06:02:59;43.78;34.97;58.84;;
76261;Laerm;65076;52.362;6.588;2024-03-23T06:05:25;46.81;37.07;60.15;;
76261;Laerm;65076;52.362;6.588;2024-03-23T06:07:52;48.72;37.68;61.20;;
76261;Laerm;65076;52.362;6.588;2024-03-23T06:10:18;61.26;37.29;77.24;;
76261;Laerm;65076;52.362;6.588;2024-03-23T06:12:45;51.96;36.85;65.06;;
76261;Laerm;65076;52.362;6.588;2024-03-23T06:15:14;51.48;37.26;64.28;;
76261;Laerm;65076;52.362;6.588;2024-03-23T06:17:41;48.53;37.14;63.02;;
76261;Laerm;65076;52.362;6.588;2024-03-23T06:20:08;49.74;37.06;65.01;;
76261;Laerm;65076;52.362;6.588;2024-03-23T06:22:35;49.36;36.37;64.45;;
76261;Laerm;65076;52.362;6.588;2024-03-23T06:25:01;52.08;36.82;65.09;;
76261;Laerm;65076;52.362;6.588;2024-03-23T06:27:27;47.16;36.79;63.08;;
76261;Laerm;65076;52.362;6.588;2024-03-23T06:37:19;62.47;39.94;77.30;;
76261;Laerm;65076;52.362;6.588;2024-03-23T06:39:46;62.67;37.92;74.86;;
76261;Laerm;65076;52.362;6.588;2024-03-23T06:47:15;54.76;38.06;72.07;;
76261;Laerm;65076;52.362;6.588;2024-03-23T06:49:41;52.05;38.14;62.11;;
76261;Laerm;65076;52.362;6.588;2024-03-23T06:57:12;55.07;39.41;66.54;;
76261;Laerm;65076;52.362;6.588;2024-03-23T07:07:01;54.74;40.55;65.17;;
76261;Laerm;65076;52.362;6.588;2024-03-23T07:09:28;58.59;44.43;75.96;;
76261;Laerm;65076;52.362;6.588;2024-03-23T07:11:56;60.12;39.32;74.83;;
76261;Laerm;65076;52.362;6.588;2024-03-23T07:14:25;53.20;38.98;64.84;;
76261;Laerm;65076;52.362;6.588;2024-03-23T07:16:51;51.23;39.21;64.11;;
76261;Laerm;65076;52.362;6.588;2024-03-23T07:19:18;57.55;39.16;75.74;;
76261;Laerm;65076;52.362;6.588;2024-03-23T07:21:44;60.20;41.31;73.78;;
76261;Laerm;65076;52.362;6.588;2024-03-23T07:24:11;62.79;42.85;78.06;;
76261;Laerm;65076;52.362;6.588;2024-03-23T07:26:38;55.85;44.07;72.55;;
76261;Laerm;65076;52.362;6.588;2024-03-23T07:29:04;51.67;39.31;64.96;;
76261;Laerm;65076;52.362;6.588;2024-03-23T07:31:33;55.84;41.75;70.47;;
76261;Laerm;65076;52.362;6.588;2024-03-23T07:33:59;54.25;38.84;65.69;;
76261;Laerm;65076;52.362;6.588;2024-03-23T07:36:25;53.75;41.60;66.79;;
76261;Laerm;65076;52.362;6.588;2024-03-23T07:38:52;60.35;43.10;78.51;;
76261;Laerm;65076;52.362;6.588;2024-03-23T07:41:19;59.51;41.11;76.15;;
76261;Laerm;65076;52.362;6.588;2024-03-23T07:43:47;55.80;43.26;64.90;;
76261;Laerm;65076;52.362;6.588;2024-03-23T07:46:15;53.98;39.91;65.05;;
76261;Laerm;65076;52.362;6.588;2024-03-23T07:48:44;54.64;39.60;67.40;;
76261;Laerm;65076;52.362;6.588;2024-03-23T07:56:08;55.70;41.15;69.69;;
76261;Laerm;65076;52.362;6.588;2024-03-23T07:58:34;50.71;41.15;64.71;;
76261;Laerm;65076;52.362;6.588;2024-03-23T08:01:04;57.06;42.41;67.04;;
76261;Laerm;65076;52.362;6.588;2024-03-23T08:03:31;55.28;39.92;64.49;;
76261;Laerm;65076;52.362;6.588;2024-03-23T08:06:07;53.66;41.72;63.56;;
76261;Laerm;65076;52.362;6.588;2024-03-23T08:30:48;54.87;43.67;64.61;;
76261;Laerm;65076;52.362;6.588;2024-03-23T08:33:14;51.56;40.89;60.18;;
76261;Laerm;65076;52.362;6.588;2024-03-23T08:43:10;54.53;42.91;63.23;;
76261;Laerm;65076;52.362;6.588;2024-03-23T08:45:40;55.48;39.74;72.31;;
76261;Laerm;65076;52.362;6.588;2024-03-23T08:58:05;54.93;38.85;64.23;;
76261;Laerm;65076;52.362;6.588;2024-03-23T09:10:28;62.29;44.28;75.13;;
76261;Laerm;65076;52.362;6.588;2024-03-23T09:52:29;58.75;43.30;75.23;;
76261;Laerm;65076;52.362;6.588;2024-03-23T10:04:50;55.77;42.85;65.64;;
76261;Laerm;65076;52.362;6.588;2024-03-23T10:12:19;60.17;41.88;74.22;;
76261;Laerm;65076;52.362;6.588;2024-03-23T10:14:46;56.76;44.22;72.03;;
76261;Laerm;65076;52.362;6.588;2024-03-23T10:17:14;67.64;44.95;77.80;;
76261;Laerm;65076;52.362;6.588;2024-03-23T10:19:41;65.25;45.39;75.34;;
76261;Laerm;65076;52.362;6.588;2024-03-23T10:22:09;60.73;43.76;74.92;;
76261;Laerm;65076;52.362;6.588;2024-03-23T10:24:35;57.36;46.25;71.12;;
76261;Laerm;65076;52.362;6.588;2024-03-23T10:27:01;54.46;42.43;66.00;;
76261;Laerm;65076;52.362;6.588;2024-03-23T10:29:30;55.77;42.72;64.88;;
76261;Laerm;65076;52.362;6.588;2024-03-23T10:34:25;56.91;46.14;65.74;;
76261;Laerm;65076;52.362;6.588;2024-03-23T10:36:53;58.60;48.18;75.83;;
76261;Laerm;65076;52.362;6.588;2024-03-23T10:41:53;60.58;46.71;72.70;;
76261;Laerm;65076;52.362;6.588;2024-03-23T10:54:19;65.59;43.47;77.77;;
76261;Laerm;65076;52.362;6.588;2024-03-23T11:02:02;57.21;42.18;72.49;;
76261;Laerm;65076;52.362;6.588;2024-03-23T11:49:01;66.56;42.05;76.53;;
76261;Laerm;65076;52.362;6.588;2024-03-23T12:03:49;57.89;43.03;67.94;;
76261;Laerm;65076;52.362;6.588;2024-03-23T12:28:42;59.64;44.35;67.30;;
76261;Laerm;65076;52.362;6.588;2024-03-23T12:36:05;57.78;42.96;68.76;;
76261;Laerm;65076;52.362;6.588;2024-03-23T12:38:31;60.88;46.32;75.99;;
76261;Laerm;65076;52.362;6.588;2024-03-23T12:40:57;63.75;47.82;75.34;;
76261;Laerm;65076;52.362;6.588;2024-03-23T12:53:19;58.16;46.57;71.10;;
76261;Laerm;65076;52.362;6.588;2024-03-23T13:35:24;53.04;41.40;62.43;;
76261;Laerm;65076;52.362;6.588;2024-03-23T13:47:56;54.31;41.28;66.31;;
76261;Laerm;65076;52.362;6.588;2024-03-23T14:39:55;62.66;43.56;77.41;;
76261;Laerm;65076;52.362;6.588;2024-03-23T14:49:45;54.49;44.03;62.65;;
76261;Laerm;65076;52.362;6.588;2024-03-23T14:57:11;55.49;44.87;65.03;;
76261;Laerm;65076;52.362;6.588;2024-03-23T15:04:54;58.43;44.93;75.39;;
76261;Laerm;65076;52.362;6.588;2024-03-23T15:17:20;53.49;42.26;63.46;;
76261;Laerm;65076;52.362;6.588;2024-03-23T15:29:41;56.45;45.54;66.56;;
76261;Laerm;65076;52.362;6.588;2024-03-23T15:39:35;63.04;44.03;77.22;;
76261;Laerm;65076;52.362;6.588;2024-03-23T15:42:01;61.26;42.80;77.80;;
76261;Laerm;65076;52.362;6.588;2024-03-23T15:49:28;54.21;45.69;62.32;;
76261;Laerm;65076;52.362;6.588;2024-03-23T15:59:26;60.42;46.27;74.26;;
76261;Laerm;65076;52.362;6.588;2024-03-23T16:11:46;61.61;42.57;75.45;;
76261;Laerm;65076;52.362;6.588;2024-03-23T16:14:26;66.90;43.16;77.92;;
76261;Laerm;65076;52.362;6.588;2024-03-23T16:19:21;53.73;41.14;65.82;;
76261;Laerm;65076;52.362;6.588;2024-03-23T16:41:40;60.16;38.73;74.67;;
76261;Laerm;65076;52.362;6.588;2024-03-23T16:44:10;69.86;41.75;81.70;;
76261;Laerm;65076;52.362;6.588;2024-03-23T16:51:29;57.99;36.30;71.57;;
76261;Laerm;65076;52.362;6.588;2024-03-23T17:06:22;57.29;40.02;73.19;;
76261;Laerm;65076;52.362;6.588;2024-03-23T17:11:21;61.97;36.47;76.23;;
76261;Laerm;65076;52.362;6.588;2024-03-23T17:16:21;54.83;37.53;65.26;;
76261;Laerm;65076;52.362;6.588;2024-03-23T17:26:20;57.35;39.19;71.91;;
76261;Laerm;65076;52.362;6.588;2024-03-23T17:28:49;52.25;40.93;64.47;;
76261;Laerm;65076;52.362;6.588;2024-03-23T17:36:13;58.99;41.21;76.36;;
76261;Laerm;65076;52.362;6.588;2024-03-23T17:56:07;56.78;44.49;67.67;;
76261;Laerm;65076;52.362;6.588;2024-03-23T18:28:16;49.87;38.47;62.28;;
76261;Laerm;65076;52.362;6.588;2024-03-23T18:40:35;62.76;40.60;74.51;;
76261;Laerm;65076;52.362;6.588;2024-03-23T18:43:05;54.55;39.95;64.17;;
76261;Laerm;65076;52.362;6.588;2024-03-23T19:05:23;51.45;39.31;64.51;;
76261;Laerm;65076;52.362;6.588;2024-03-23T19:15:18;52.49;36.70;76.16;;
76261;Laerm;65076;52.362;6.588;2024-03-23T19:30:12;53.83;37.14;66.82;;
76261;Laerm;65076;52.362;6.588;2024-03-23T19:52:29;60.00;38.58;75.34;;
76261;Laerm;65076;52.362;6.588;2024-03-23T20:12:15;61.58;37.66;76.21;;
76261;Laerm;65076;52.362;6.588;2024-03-23T20:34:32;53.03;36.52;65.65;;
76261;Laerm;65076;52.362;6.588;2024-03-23T20:41:57;60.60;37.75;76.32;;
76261;Laerm;65076;52.362;6.588;2024-03-23T20:44:27;44.69;35.91;54.24;;
76261;Laerm;65076;52.362;6.588;2024-03-23T20:49:23;53.39;35.17;73.92;;
76261;Laerm;65076;52.362;6.588;2024-03-23T20:51:55;56.78;37.81;74.76;;
76261;Laerm;65076;52.362;6.588;2024-03-23T21:01:48;47.89;37.63;62.85;;
76261;Laerm;65076;52.362;6.588;2024-03-23T21:19:10;50.15;37.64;63.71;;
76261;Laerm;65076;52.362;6.588;2024-03-23T21:43:56;56.15;37.39;72.76;;
76261;Laerm;65076;52.362;6.588;2024-03-23T21:53:53;51.82;37.49;64.79;;
76261;Laerm;65076;52.362;6.588;2024-03-23T21:56:23;47.95;38.16;61.60;;
76261;Laerm;65076;52.362;6.588;2024-03-23T22:06:21;48.24;36.08;60.93;;
76261;Laerm;65076;52.362;6.588;2024-03-23T22:23:41;47.95;35.68;59.36;;
76261;Laerm;65076;52.362;6.588;2024-03-23T22:26:11;49.16;37.10;63.35;;
76261;Laerm;65076;52.362;6.588;2024-03-23T22:41:04;46.82;36.96;61.64;;
76261;Laerm;65076;52.362;6.588;2024-03-23T22:50:58;46.86;36.34;60.17;;
76261;Laerm;65076;52.362;6.588;2024-03-23T22:58:27;50.44;36.93;67.99;;
76261;Laerm;65076;52.362;6.588;2024-03-23T23:08:25;46.39;36.64;61.54;;
76261;Laerm;65076;52.362;6.588;2024-03-23T23:20:51;57.57;37.29;74.70;;
76261;Laerm;65076;52.362;6.588;2024-03-23T23:23:19;47.66;37.02;60.45;;
76261;Laerm;65076;52.362;6.588;2024-03-23T23:48:09;45.10;35.39;60.90;;
